ADDS TAF Board (Experimental) INFO Settings
IDs: Format: Expanded Condensed

KPHX - Phoenix/Sky Harbor, AZ, US

Issued at 1139 UTC 14 Feb 2016
Updated at: 1438 UTC 14 Feb 2016
Time1351Z 14/15Z 14/16Z 14/17Z 14/18Z 14/19Z 14/20Z 14/21Z 14/22Z 14/23Z 15/00Z 15/01Z 15/02Z 15/03Z
Type OBS PRVL PRVL PRVL PRVL PRVL PRVL PRVL PRVL PRVL PRVL PRVL PRVL PRVL
VIS 10 >6 >6 >6 >6 >6 >6 >6 >6 >6 >6 >6 >6 >6
CIG -- -- -- -- -- -- -- -- -- -- -- -- -- --
Cover CLR FEW FEW FEW FEW FEW FEW SCT SCT SCT SCT SCT SCT SCT
FltCat VFR VFR VFR VFR VFR VFR VFR VFR VFR VFR VFR VFR VFR VFR
WX -- -- -- -- -- -- -- -- -- -- -- -- -- --
WDir 130 90 90 90 90 90 90 280 280 280 280 280 280 280
WSpd 4 5 5 5 5 5 5 7 7 7 7 7 7 7
WGst -- -- -- -- -- -- -- -- -- -- -- -- -- --
R07/25
XWnd -3 0 0 0 0 0 0 1 1 1 1 1 1 1
HWnd 3 5 5 5 5 5 5 -7 -7 -7 -7 -7 -7 -7
R08/26
XWnd -3 0 0 0 0 0 0 1 1 1 1 1 1 1
HWnd 3 5 5 5 5 5 5 -7 -7 -7 -7 -7 -7 -7

NOTE: TEMPO conditions in [brackets]. Keep in mind TEMPO conditions might be better (lower impact) than prevailing conditions.

Raw TAF
KPHX 141139Z 1412/1512 09005KT P6SM FEW250
  FM142100 28007KT P6SM SCT250
  FM150500 06005KT P6SM SCT250


Raw METAR
KPHX 141351Z 13004KT 10SM CLR 13/00 A2998 RMK AO2 SLP142 T01280000
KPHX 141251Z 10006KT 10SM CLR 13/01 A2997 RMK AO2 SLP137 T01280011
KPHX 141151Z 00000KT 10SM CLR 13/01 A2997 RMK AO2 SLP136 T01330011 10200 20128 50002

METAR Board
Radar Display
Forecast Discussion

TAF Board Legend

Potential Impact
Threat None Slight Moderate High
Visibility (sm) ≥5.1 5.1>X≥3 3>X≥1 <1
Ceiling (100 ft) ≥30.1 30.1>X≥10 10>X≥5 <5
Wind Speed (kt) <10 10≤X<20 20≤X<30 ≥30
Wind Gust (kt) <15 15≤X<25 25≤X<35 ≥35
Weather No Wx Reported VCTS,-TS,-FZRA,SN TS,FZRA +TS,+FZRA,+SN